sensor_id;sensor_type;location;lat;lon;timestamp;pressure;altitude;pressure_sealevel;temperature
33267;BMP180;19638;49.080;11.896;2022-10-28T00:03:32;97222.00;;;13.40
33267;BMP180;19638;49.080;11.896;2022-10-28T00:07:38;97209.00;;;13.30
33267;BMP180;19638;49.080;11.896;2022-10-28T00:11:41;97205.00;;;13.20
33267;BMP180;19638;49.080;11.896;2022-10-28T00:15:46;97204.00;;;13.20
33267;BMP180;19638;49.080;11.896;2022-10-28T00:19:49;97202.00;;;13.20
33267;BMP180;19638;49.080;11.896;2022-10-28T00:23:52;97212.00;;;13.20
33267;BMP180;19638;49.080;11.896;2022-10-28T00:27:55;97210.00;;;13.10
33267;BMP180;19638;49.080;11.896;2022-10-28T00:31:59;97216.00;;;13.00
33267;BMP180;19638;49.080;11.896;2022-10-28T00:36:07;97217.00;;;12.80
33267;BMP180;19638;49.080;11.896;2022-10-28T00:40:11;97201.00;;;12.70
33267;BMP180;19638;49.080;11.896;2022-10-28T00:44:45;97206.00;;;12.50
33267;BMP180;19638;49.080;11.896;2022-10-28T00:48:55;97211.00;;;12.50
33267;BMP180;19638;49.080;11.896;2022-10-28T00:53:25;97206.00;;;12.60
33267;BMP180;19638;49.080;11.896;2022-10-28T00:57:32;97200.00;;;12.70
33267;BMP180;19638;49.080;11.896;2022-10-28T01:01:36;97210.00;;;12.70
33267;BMP180;19638;49.080;11.896;2022-10-28T01:05:41;97205.00;;;12.70
33267;BMP180;19638;49.080;11.896;2022-10-28T01:09:46;97201.00;;;12.60
33267;BMP180;19638;49.080;11.896;2022-10-28T01:13:59;97204.00;;;12.60
33267;BMP180;19638;49.080;11.896;2022-10-28T01:18:17;97206.00;;;12.50
33267;BMP180;19638;49.080;11.896;2022-10-28T01:22:24;97207.00;;;12.40
33267;BMP180;19638;49.080;11.896;2022-10-28T01:26:41;97194.00;;;12.30
33267;BMP180;19638;49.080;11.896;2022-10-28T01:31:14;97195.00;;;11.90
33267;BMP180;19638;49.080;11.896;2022-10-28T01:35:24;97200.00;;;11.70
33267;BMP180;19638;49.080;11.896;2022-10-28T01:39:32;97202.00;;;11.60
33267;BMP180;19638;49.080;11.896;2022-10-28T01:43:41;97207.00;;;11.40
33267;BMP180;19638;49.080;11.896;2022-10-28T01:47:49;97194.00;;;11.40
33267;BMP180;19638;49.080;11.896;2022-10-28T01:51:58;97200.00;;;11.40
33267;BMP180;19638;49.080;11.896;2022-10-28T01:56:07;97202.00;;;11.30
33267;BMP180;19638;49.080;11.896;2022-10-28T02:00:12;97195.00;;;11.20
33267;BMP180;19638;49.080;11.896;2022-10-28T02:04:17;97195.00;;;11.10
33267;BMP180;19638;49.080;11.896;2022-10-28T02:08:37;97196.00;;;11.00
33267;BMP180;19638;49.080;11.896;2022-10-28T02:12:47;97192.00;;;10.80
33267;BMP180;19638;49.080;11.896;2022-10-28T02:16:59;97190.00;;;10.80
33267;BMP180;19638;49.080;11.896;2022-10-28T02:21:07;97187.00;;;10.90
33267;BMP180;19638;49.080;11.896;2022-10-28T02:25:40;97188.00;;;11.00
33267;BMP180;19638;49.080;11.896;2022-10-28T02:29:48;97181.00;;;11.10
33267;BMP180;19638;49.080;11.896;2022-10-28T02:33:56;97174.00;;;11.30
33267;BMP180;19638;49.080;11.896;2022-10-28T02:38:06;97174.00;;;11.20
33267;BMP180;19638;49.080;11.896;2022-10-28T02:42:36;97171.00;;;11.00
33267;BMP180;19638;49.080;11.896;2022-10-28T02:46:42;97178.00;;;10.90
33267;BMP180;19638;49.080;11.896;2022-10-28T02:50:50;97170.00;;;10.80
33267;BMP180;19638;49.080;11.896;2022-10-28T02:54:58;97161.00;;;10.80
33267;BMP180;19638;49.080;11.896;2022-10-28T02:59:32;97171.00;;;10.90
33267;BMP180;19638;49.080;11.896;2022-10-28T03:03:35;97169.00;;;11.10
33267;BMP180;19638;49.080;11.896;2022-10-28T03:08:12;97176.00;;;11.10
33267;BMP180;19638;49.080;11.896;2022-10-28T03:12:16;97179.00;;;11.10
33267;BMP180;19638;49.080;11.896;2022-10-28T03:16:19;97181.00;;;11.10
33267;BMP180;19638;49.080;11.896;2022-10-28T03:20:23;97174.00;;;11.20
33267;BMP180;19638;49.080;11.896;2022-10-28T03:24:59;97183.00;;;11.40
33267;BMP180;19638;49.080;11.896;2022-10-28T03:29:04;97179.00;;;11.60
33267;BMP180;19638;49.080;11.896;2022-10-28T03:33:38;97177.00;;;11.80
33267;BMP180;19638;49.080;11.896;2022-10-28T03:38:15;97172.00;;;12.10
33267;BMP180;19638;49.080;11.896;2022-10-28T03:42:52;97168.00;;;12.20
33267;BMP180;19638;49.080;11.896;2022-10-28T03:47:30;97166.00;;;12.30
33267;BMP180;19638;49.080;11.896;2022-10-28T03:52:04;97168.00;;;12.40
33267;BMP180;19638;49.080;11.896;2022-10-28T03:56:12;97166.00;;;12.40
33267;BMP180;19638;49.080;11.896;2022-10-28T04:00:16;97169.00;;;12.40
33267;BMP180;19638;49.080;11.896;2022-10-28T04:04:54;97166.00;;;12.20
33267;BMP180;19638;49.080;11.896;2022-10-28T04:08:57;97164.00;;;12.20
33267;BMP180;19638;49.080;11.896;2022-10-28T04:13:34;97166.00;;;12.20
33267;BMP180;19638;49.080;11.896;2022-10-28T04:18:11;97173.00;;;12.10
33267;BMP180;19638;49.080;11.896;2022-10-28T04:22:49;97173.00;;;12.10
33267;BMP180;19638;49.080;11.896;2022-10-28T04:26:57;97178.00;;;12.00
33267;BMP180;19638;49.080;11.896;2022-10-28T04:31:34;97168.00;;;11.90
33267;BMP180;19638;49.080;11.896;2022-10-28T04:36:11;97157.00;;;11.80
33267;BMP180;19638;49.080;11.896;2022-10-28T04:40:15;97156.00;;;11.80
33267;BMP180;19638;49.080;11.896;2022-10-28T04:44:49;97166.00;;;11.80
33267;BMP180;19638;49.080;11.896;2022-10-28T04:49:26;97169.00;;;11.80
33267;BMP180;19638;49.080;11.896;2022-10-28T04:54:03;97176.00;;;12.00
33267;BMP180;19638;49.080;11.896;2022-10-28T05:03:18;97180.00;;;12.20
33267;BMP180;19638;49.080;11.896;2022-10-28T05:07:21;97183.00;;;12.30
33267;BMP180;19638;49.080;11.896;2022-10-28T05:16:35;97180.00;;;12.30
33267;BMP180;19638;49.080;11.896;2022-10-28T05:25:50;97178.00;;;12.20
33267;BMP180;19638;49.080;11.896;2022-10-28T05:35:00;97169.00;;;12.20
33267;BMP180;19638;49.080;11.896;2022-10-28T05:39:37;97172.00;;;12.10
33267;BMP180;19638;49.080;11.896;2022-10-28T05:48:51;97168.00;;;12.10
33267;BMP180;19638;49.080;11.896;2022-10-28T05:53:25;97165.00;;;12.10
33267;BMP180;19638;49.080;11.896;2022-10-28T06:02:39;97185.00;;;12.20
33267;BMP180;19638;49.080;11.896;2022-10-28T06:07:17;97177.00;;;12.30
33267;BMP180;19638;49.080;11.896;2022-10-28T06:11:51;97188.00;;;12.40
33267;BMP180;19638;49.080;11.896;2022-10-28T06:16:28;97187.00;;;12.50
33267;BMP180;19638;49.080;11.896;2022-10-28T06:21:05;97192.00;;;12.60
33267;BMP180;19638;49.080;11.896;2022-10-28T06:25:43;97189.00;;;12.60
33267;BMP180;19638;49.080;11.896;2022-10-28T06:30:17;97197.00;;;12.70
33267;BMP180;19638;49.080;11.896;2022-10-28T06:34:54;97196.00;;;12.70
33267;BMP180;19638;49.080;11.896;2022-10-28T06:39:31;97214.00;;;12.80
33267;BMP180;19638;49.080;11.896;2022-10-28T06:44:09;97220.00;;;12.80
33267;BMP180;19638;49.080;11.896;2022-10-28T06:48:43;97214.00;;;12.90
33267;BMP180;19638;49.080;11.896;2022-10-28T06:53:20;97233.00;;;13.00
33267;BMP180;19638;49.080;11.896;2022-10-28T07:02:35;97234.00;;;13.20
33267;BMP180;19638;49.080;11.896;2022-10-28T07:07:10;97246.00;;;13.50
33267;BMP180;19638;49.080;11.896;2022-10-28T07:16:01;97252.00;;;13.80
33267;BMP180;19638;49.080;11.896;2022-10-28T07:20:41;97245.00;;;13.80
33267;BMP180;19638;49.080;11.896;2022-10-28T07:25:14;97244.00;;;13.90
33267;BMP180;19638;49.080;11.896;2022-10-28T07:29:51;97242.00;;;14.00
33267;BMP180;19638;49.080;11.896;2022-10-28T07:34:29;97244.00;;;14.10
33267;BMP180;19638;49.080;11.896;2022-10-28T07:39:08;97265.00;;;14.30
33267;BMP180;19638;49.080;11.896;2022-10-28T07:48:01;97280.00;;;14.40
33267;BMP180;19638;49.080;11.896;2022-10-28T07:52:35;97285.00;;;14.60
33267;BMP180;19638;49.080;11.896;2022-10-28T07:57:13;97282.00;;;14.60
33267;BMP180;19638;49.080;11.896;2022-10-28T08:01:47;97286.00;;;14.70
33267;BMP180;19638;49.080;11.896;2022-10-28T08:10:27;97287.00;;;14.90
33267;BMP180;19638;49.080;11.896;2022-10-28T08:15:10;97278.00;;;15.00
33267;BMP180;19638;49.080;11.896;2022-10-28T08:19:40;97274.00;;;15.10
33267;BMP180;19638;49.080;11.896;2022-10-28T08:28:53;97266.00;;;15.40
33267;BMP180;19638;49.080;11.896;2022-10-28T08:38:09;97271.00;;;15.70
33267;BMP180;19638;49.080;11.896;2022-10-28T08:42:43;97273.00;;;15.60
33267;BMP180;19638;49.080;11.896;2022-10-28T08:51:55;97245.00;;;15.50
33267;BMP180;19638;49.080;11.896;2022-10-28T08:56:33;97246.00;;;15.50
33267;BMP180;19638;49.080;11.896;2022-10-28T09:01:12;97240.00;;;15.60
33267;BMP180;19638;49.080;11.896;2022-10-28T09:05:44;97243.00;;;15.70
33267;BMP180;19638;49.080;11.896;2022-10-28T09:09:51;97243.00;;;15.70
33267;BMP180;19638;49.080;11.896;2022-10-28T09:14:33;97248.00;;;15.80
33267;BMP180;19638;49.080;11.896;2022-10-28T09:19:01;97241.00;;;15.70
33267;BMP180;19638;49.080;11.896;2022-10-28T09:23:38;97237.00;;;15.50
33267;BMP180;19638;49.080;11.896;2022-10-28T09:28:16;97231.00;;;15.60
33267;BMP180;19638;49.080;11.896;2022-10-28T09:37:33;97237.00;;;15.90
33267;BMP180;19638;49.080;11.896;2022-10-28T09:42:08;97240.00;;;16.00
33267;BMP180;19638;49.080;11.896;2022-10-28T09:46:50;97238.00;;;16.10
33267;BMP180;19638;49.080;11.896;2022-10-28T09:51:05;97244.00;;;16.30
33267;BMP180;19638;49.080;11.896;2022-10-28T09:55:41;97249.00;;;16.50
33267;BMP180;19638;49.080;11.896;2022-10-28T10:00:16;97248.00;;;16.80
33267;BMP180;19638;49.080;11.896;2022-10-28T10:04:50;97239.00;;;17.10
33267;BMP180;19638;49.080;11.896;2022-10-28T10:09:28;97248.00;;;17.40
33267;BMP180;19638;49.080;11.896;2022-10-28T10:18:41;97254.00;;;17.80
33267;BMP180;19638;49.080;11.896;2022-10-28T10:23:25;97249.00;;;17.90
33267;BMP180;19638;49.080;11.896;2022-10-28T10:28:00;97249.00;;;18.00
33267;BMP180;19638;49.080;11.896;2022-10-28T10:32:37;97243.00;;;18.10
33267;BMP180;19638;49.080;11.896;2022-10-28T10:37:19;97242.00;;;18.10
33267;BMP180;19638;49.080;11.896;2022-10-28T10:41:33;97234.00;;;18.30
33267;BMP180;19638;49.080;11.896;2022-10-28T10:46:11;97233.00;;;18.40
33267;BMP180;19638;49.080;11.896;2022-10-28T10:50:44;97239.00;;;18.50
33267;BMP180;19638;49.080;11.896;2022-10-28T10:55:23;97225.00;;;18.70
33267;BMP180;19638;49.080;11.896;2022-10-28T10:59:54;97228.00;;;18.70
33267;BMP180;19638;49.080;11.896;2022-10-28T12:15:19;97183.00;;;21.00
33267;BMP180;19638;49.080;11.896;2022-10-28T12:19:50;97176.00;;;21.20
33267;BMP180;19638;49.080;11.896;2022-10-28T12:24:26;97176.00;;;21.60
33267;BMP180;19638;49.080;11.896;2022-10-28T12:28:35;97172.00;;;21.80
33267;BMP180;19638;49.080;11.896;2022-10-28T12:37:15;97170.00;;;22.10
33267;BMP180;19638;49.080;11.896;2022-10-28T12:41:46;97157.00;;;22.30
33267;BMP180;19638;49.080;11.896;2022-10-28T12:45:53;97154.00;;;22.40
33267;BMP180;19638;49.080;11.896;2022-10-28T12:50:29;97146.00;;;22.40
33267;BMP180;19638;49.080;11.896;2022-10-28T12:54:42;97147.00;;;22.60
33267;BMP180;19638;49.080;11.896;2022-10-28T12:59:02;97141.00;;;22.70
33267;BMP180;19638;49.080;11.896;2022-10-28T13:03:30;97146.00;;;22.90
33267;BMP180;19638;49.080;11.896;2022-10-28T13:07:50;97142.00;;;23.00
33267;BMP180;19638;49.080;11.896;2022-10-28T13:17:10;97132.00;;;23.20
33267;BMP180;19638;49.080;11.896;2022-10-28T13:21:38;97129.00;;;23.20
33267;BMP180;19638;49.080;11.896;2022-10-28T13:31:13;97125.00;;;22.80
33267;BMP180;19638;49.080;11.896;2022-10-28T13:35:49;97129.00;;;22.50
33267;BMP180;19638;49.080;11.896;2022-10-28T13:50:09;97139.00;;;22.30
33267;BMP180;19638;49.080;11.896;2022-10-28T13:54:29;97137.00;;;22.20
33267;BMP180;19638;49.080;11.896;2022-10-28T14:03:37;97124.00;;;22.30
33267;BMP180;19638;49.080;11.896;2022-10-28T14:07:50;97121.00;;;22.20
33267;BMP180;19638;49.080;11.896;2022-10-28T14:12:21;97128.00;;;22.10
33267;BMP180;19638;49.080;11.896;2022-10-28T14:16:27;97124.00;;;21.90
33267;BMP180;19638;49.080;11.896;2022-10-28T14:20:59;97122.00;;;21.60
33267;BMP180;19638;49.080;11.896;2022-10-28T14:29:47;97115.00;;;21.30
33267;BMP180;19638;49.080;11.896;2022-10-28T14:39:10;97123.00;;;21.00
33267;BMP180;19638;49.080;11.896;2022-10-28T14:43:37;97121.00;;;20.80
33267;BMP180;19638;49.080;11.896;2022-10-28T14:52:33;97122.00;;;20.60
33267;BMP180;19638;49.080;11.896;2022-10-28T14:56:37;97113.00;;;20.50
33267;BMP180;19638;49.080;11.896;2022-10-28T15:00:47;97129.00;;;20.40
33267;BMP180;19638;49.080;11.896;2022-10-28T15:04:59;97125.00;;;20.20
33267;BMP180;19638;49.080;11.896;2022-10-28T15:09:14;97128.00;;;20.00
33267;BMP180;19638;49.080;11.896;2022-10-28T15:13:18;97130.00;;;19.90
33267;BMP180;19638;49.080;11.896;2022-10-28T15:17:24;97128.00;;;19.70
33267;BMP180;19638;49.080;11.896;2022-10-28T15:21:27;97116.00;;;19.60
33267;BMP180;19638;49.080;11.896;2022-10-28T15:26:06;97110.00;;;19.40
33267;BMP180;19638;49.080;11.896;2022-10-28T15:30:13;97102.00;;;19.30
33267;BMP180;19638;49.080;11.896;2022-10-28T15:34:19;97111.00;;;19.20
33267;BMP180;19638;49.080;11.896;2022-10-28T15:39:03;97105.00;;;19.00
33267;BMP180;19638;49.080;11.896;2022-10-28T15:43:17;97102.00;;;18.90
33267;BMP180;19638;49.080;11.896;2022-10-28T15:47:42;97111.00;;;18.80
33267;BMP180;19638;49.080;11.896;2022-10-28T15:52:20;97098.00;;;18.70
33267;BMP180;19638;49.080;11.896;2022-10-28T15:56:55;97094.00;;;18.60
33267;BMP180;19638;49.080;11.896;2022-10-28T16:01:37;97099.00;;;18.40
33267;BMP180;19638;49.080;11.896;2022-10-28T16:10:33;97095.00;;;18.30
33267;BMP180;19638;49.080;11.896;2022-10-28T16:14:38;97095.00;;;18.20
33267;BMP180;19638;49.080;11.896;2022-10-28T16:19:18;97091.00;;;18.10
33267;BMP180;19638;49.080;11.896;2022-10-28T16:23:51;97091.00;;;18.00
33267;BMP180;19638;49.080;11.896;2022-10-28T16:28:27;97102.00;;;18.00
33267;BMP180;19638;49.080;11.896;2022-10-28T16:32:35;97122.00;;;17.90
33267;BMP180;19638;49.080;11.896;2022-10-28T16:36:40;97126.00;;;17.80
33267;BMP180;19638;49.080;11.896;2022-10-28T16:40:43;97133.00;;;17.70
33267;BMP180;19638;49.080;11.896;2022-10-28T16:44:52;97139.00;;;17.60
33267;BMP180;19638;49.080;11.896;2022-10-28T16:49:30;97138.00;;;17.50
33267;BMP180;19638;49.080;11.896;2022-10-28T16:54:08;97142.00;;;17.30
33267;BMP180;19638;49.080;11.896;2022-10-28T16:58:13;97157.00;;;17.10
33267;BMP180;19638;49.080;11.896;2022-10-28T17:02:50;97155.00;;;16.90
33267;BMP180;19638;49.080;11.896;2022-10-28T17:06:54;97149.00;;;16.60
33267;BMP180;19638;49.080;11.896;2022-10-28T17:10:59;97157.00;;;16.40
33267;BMP180;19638;49.080;11.896;2022-10-28T17:19:39;97170.00;;;15.80
33267;BMP180;19638;49.080;11.896;2022-10-28T17:24:16;97166.00;;;15.50
33267;BMP180;19638;49.080;11.896;2022-10-28T17:28:53;97165.00;;;15.20
33267;BMP180;19638;49.080;11.896;2022-10-28T17:33:30;97144.00;;;15.10
33267;BMP180;19638;49.080;11.896;2022-10-28T17:38:06;97148.00;;;15.00
33267;BMP180;19638;49.080;11.896;2022-10-28T17:42:10;97139.00;;;15.00
33267;BMP180;19638;49.080;11.896;2022-10-28T17:46:15;97129.00;;;15.00
33267;BMP180;19638;49.080;11.896;2022-10-28T17:50:18;97113.00;;;15.10
33267;BMP180;19638;49.080;11.896;2022-10-28T17:58:58;97127.00;;;15.50
33267;BMP180;19638;49.080;11.896;2022-10-28T18:03:37;97137.00;;;15.70
33267;BMP180;19638;49.080;11.896;2022-10-28T18:07:40;97126.00;;;15.90
33267;BMP180;19638;49.080;11.896;2022-10-28T18:11:43;97139.00;;;16.00
33267;BMP180;19638;49.080;11.896;2022-10-28T18:15:46;97143.00;;;16.20
33267;BMP180;19638;49.080;11.896;2022-10-28T18:20:25;97131.00;;;16.20
33267;BMP180;19638;49.080;11.896;2022-10-28T18:24:28;97136.00;;;16.20
33267;BMP180;19638;49.080;11.896;2022-10-28T18:29:02;97124.00;;;16.10
33267;BMP180;19638;49.080;11.896;2022-10-28T18:33:05;97127.00;;;16.10
33267;BMP180;19638;49.080;11.896;2022-10-28T18:37:43;97122.00;;;16.00
33267;BMP180;19638;49.080;11.896;2022-10-28T18:41:47;97116.00;;;16.00
33267;BMP180;19638;49.080;11.896;2022-10-28T18:46:26;97113.00;;;16.00
33267;BMP180;19638;49.080;11.896;2022-10-28T18:51:00;97108.00;;;16.00
33267;BMP180;19638;49.080;11.896;2022-10-28T18:55:37;97109.00;;;16.00
33267;BMP180;19638;49.080;11.896;2022-10-28T18:59:40;97100.00;;;16.00
33267;BMP180;19638;49.080;11.896;2022-10-28T19:04:15;97102.00;;;16.00
33267;BMP180;19638;49.080;11.896;2022-10-28T19:08:18;97106.00;;;16.10
33267;BMP180;19638;49.080;11.896;2022-10-28T19:12:22;97103.00;;;16.10
33267;BMP180;19638;49.080;11.896;2022-10-28T19:16:26;97105.00;;;16.00
33267;BMP180;19638;49.080;11.896;2022-10-28T19:21:04;97093.00;;;16.00
33267;BMP180;19638;49.080;11.896;2022-10-28T19:25:09;97098.00;;;15.90
33267;BMP180;19638;49.080;11.896;2022-10-28T19:29:13;97095.00;;;15.80
33267;BMP180;19638;49.080;11.896;2022-10-28T19:33:47;97104.00;;;15.70
33267;BMP180;19638;49.080;11.896;2022-10-28T19:38:24;97107.00;;;15.60
33267;BMP180;19638;49.080;11.896;2022-10-28T19:43:01;97103.00;;;15.70
33267;BMP180;19638;49.080;11.896;2022-10-28T19:47:39;97104.00;;;15.60
33267;BMP180;19638;49.080;11.896;2022-10-28T19:52:13;97111.00;;;15.50
33267;BMP180;19638;49.080;11.896;2022-10-28T19:56:17;97125.00;;;15.50
33267;BMP180;19638;49.080;11.896;2022-10-28T20:00:21;97115.00;;;15.50
33267;BMP180;19638;49.080;11.896;2022-10-28T20:04:59;97122.00;;;15.50
33267;BMP180;19638;49.080;11.896;2022-10-28T20:09:02;97120.00;;;15.50
33267;BMP180;19638;49.080;11.896;2022-10-28T20:13:39;97124.00;;;15.40
33267;BMP180;19638;49.080;11.896;2022-10-28T20:18:16;97137.00;;;15.20
33267;BMP180;19638;49.080;11.896;2022-10-28T20:22:54;97133.00;;;15.00
33267;BMP180;19638;49.080;11.896;2022-10-28T20:26:58;97135.00;;;14.90
33267;BMP180;19638;49.080;11.896;2022-10-28T20:31:02;97139.00;;;14.70
33267;BMP180;19638;49.080;11.896;2022-10-28T20:35:07;97136.00;;;14.70
33267;BMP180;19638;49.080;11.896;2022-10-28T20:39:15;97140.00;;;14.70
33267;BMP180;19638;49.080;11.896;2022-10-28T20:43:47;97135.00;;;14.60
33267;BMP180;19638;49.080;11.896;2022-10-28T20:48:21;97137.00;;;14.50
33267;BMP180;19638;49.080;11.896;2022-10-28T20:52:59;97138.00;;;14.30
33267;BMP180;19638;49.080;11.896;2022-10-28T20:57:03;97133.00;;;14.20
33267;BMP180;19638;49.080;11.896;2022-10-28T21:01:38;97129.00;;;14.30
33267;BMP180;19638;49.080;11.896;2022-10-28T21:05:42;97134.00;;;14.50
33267;BMP180;19638;49.080;11.896;2022-10-28T21:09:45;97136.00;;;14.50
33267;BMP180;19638;49.080;11.896;2022-10-28T21:14:23;97123.00;;;14.50
33267;BMP180;19638;49.080;11.896;2022-10-28T21:18:57;97113.00;;;14.50
33267;BMP180;19638;49.080;11.896;2022-10-28T21:23:00;97119.00;;;14.40
33267;BMP180;19638;49.080;11.896;2022-10-28T21:31:38;97119.00;;;14.30
33267;BMP180;19638;49.080;11.896;2022-10-28T21:35:41;97114.00;;;14.30
33267;BMP180;19638;49.080;11.896;2022-10-28T21:39:44;97124.00;;;14.30
33267;BMP180;19638;49.080;11.896;2022-10-28T21:43:49;97122.00;;;14.40
33267;BMP180;19638;49.080;11.896;2022-10-28T21:47:54;97114.00;;;14.40
33267;BMP180;19638;49.080;11.896;2022-10-28T21:52:28;97114.00;;;14.30
33267;BMP180;19638;49.080;11.896;2022-10-28T21:56:31;97109.00;;;14.30
33267;BMP180;19638;49.080;11.896;2022-10-28T22:00:34;97110.00;;;14.40
33267;BMP180;19638;49.080;11.896;2022-10-28T22:04:39;97114.00;;;14.40
33267;BMP180;19638;49.080;11.896;2022-10-28T22:08:42;97110.00;;;14.30
33267;BMP180;19638;49.080;11.896;2022-10-28T22:12:46;97108.00;;;14.30
33267;BMP180;19638;49.080;11.896;2022-10-28T22:17:20;97113.00;;;14.20
33267;BMP180;19638;49.080;11.896;2022-10-28T22:21:26;97113.00;;;14.20
33267;BMP180;19638;49.080;11.896;2022-10-28T22:26:00;97119.00;;;14.20
33267;BMP180;19638;49.080;11.896;2022-10-28T22:30:04;97120.00;;;14.10
33267;BMP180;19638;49.080;11.896;2022-10-28T22:34:07;97122.00;;;14.00
33267;BMP180;19638;49.080;11.896;2022-10-28T22:38:11;97118.00;;;13.90
33267;BMP180;19638;49.080;11.896;2022-10-28T22:42:14;97127.00;;;13.70
33267;BMP180;19638;49.080;11.896;2022-10-28T22:50:54;97123.00;;;13.30
33267;BMP180;19638;49.080;11.896;2022-10-28T22:59:33;97114.00;;;13.10
33267;BMP180;19638;49.080;11.896;2022-10-28T23:03:38;97101.00;;;13.10
33267;BMP180;19638;49.080;11.896;2022-10-28T23:12:15;97103.00;;;12.90
33267;BMP180;19638;49.080;11.896;2022-10-28T23:16:21;97118.00;;;12.80
33267;BMP180;19638;49.080;11.896;2022-10-28T23:20:24;97112.00;;;12.70
33267;BMP180;19638;49.080;11.896;2022-10-28T23:25:01;97115.00;;;12.70
33267;BMP180;19638;49.080;11.896;2022-10-28T23:29:04;97115.00;;;12.60
33267;BMP180;19638;49.080;11.896;2022-10-28T23:33:08;97121.00;;;12.50
33267;BMP180;19638;49.080;11.896;2022-10-28T23:37:42;97123.00;;;12.40
33267;BMP180;19638;49.080;11.896;2022-10-28T23:41:45;97123.00;;;12.30
33267;BMP180;19638;49.080;11.896;2022-10-28T23:45:48;97118.00;;;12.30
33267;BMP180;19638;49.080;11.896;2022-10-28T23:49:52;97113.00;;;12.20
33267;BMP180;19638;49.080;11.896;2022-10-28T23:53:56;97109.00;;;12.10
33267;BMP180;19638;49.080;11.896;2022-10-28T23:57:59;97115.00;;;12.00
